Time;durP1;ratioP1;P1;durP2;ratioP2;P2;SDS_P1;SDS_P2;PMS_P1;PMS_P2;Temp;Humidity;BMP_temperature;BMP_pressure;BME280_temperature;BME280_humidity;BME280_pressure;Samples;Min_cycle;Max_cycle;Signal;HPM_P1;HPM_P2
2021/04/08 00:01:19;;;;;;;0.57;0.40;;;17.60;54.70;;;;;;10500388;28;20081;-58
2021/04/08 00:06:19;;;;;;;0.73;0.30;;;17.60;54.60;;;;;;10481232;28;20040;-59
2021/04/08 00:11:20;;;;;;;1.30;0.40;;;17.70;54.70;;;;;;10499576;28;20028;-59
2021/04/08 00:16:21;;;;;;;1.20;0.40;;;17.60;54.60;;;;;;10499494;28;20028;-59
2021/04/08 00:21:21;;;;;;;1.10;0.30;;;17.60;54.50;;;;;;10499515;28;20028;-59
2021/04/08 00:26:22;;;;;;;0.85;0.40;;;17.60;55.20;;;;;;10498881;28;20108;-58
2021/04/08 00:31:23;;;;;;;2.15;0.52;;;17.60;54.50;;;;;;10480895;28;20090;-59
2021/04/08 00:36:24;;;;;;;1.27;0.55;;;17.70;54.50;;;;;;10498757;28;20557;-59
2021/04/08 00:41:25;;;;;;;1.98;0.40;;;17.60;54.40;;;;;;10498623;28;20036;-59
2021/04/08 00:46:26;;;;;;;1.48;0.55;;;17.70;54.50;;;;;;10497966;28;20086;-59
2021/04/08 00:51:27;;;;;;;0.68;0.30;;;17.70;54.40;;;;;;10498070;28;20043;-58
2021/04/08 00:56:27;;;;;;;0.68;0.30;;;17.70;54.30;;;;;;10498093;28;20081;-59
2021/04/08 01:01:29;;;;;;;1.08;0.45;;;17.70;54.30;;;;;;10480053;28;20040;-59
2021/04/08 01:06:31;;;;;;;0.95;0.40;;;17.70;54.20;;;;;;10469657;28;20111;-58
2021/04/08 01:11:32;;;;;;;0.65;0.50;;;17.70;54.20;;;;;;10479344;28;20073;-59
2021/04/08 01:17:03;;;;;;;1.95;0.43;;;17.70;54.30;;;;;;10479641;28;20438;-59
2021/04/08 01:22:50;;;;;;;0.25;0.22;;;17.70;54.10;;;;;;10475884;28;20094;-59
2021/04/08 01:28:39;;;;;;;1.38;0.40;;;17.70;54.10;;;;;;10495830;28;20071;-59
2021/04/08 01:33:50;;;;;;;0.93;0.50;;;17.70;54.10;;;;;;10486400;28;20102;-58
2021/04/08 01:38:59;;;;;;;0.40;0.20;;;17.70;54.00;;;;;;10496745;28;20116;-59
2021/04/08 01:44:01;;;;;;;0.87;0.30;;;17.70;54.00;;;;;;10496800;28;20131;-59
2021/04/08 01:49:03;;;;;;;0.82;0.50;;;17.70;54.00;;;;;;10495977;28;20029;-59
2021/04/08 01:54:07;;;;;;;0.60;0.28;;;17.70;53.90;;;;;;10478874;28;20037;-59
2021/04/08 01:59:14;;;;;;;0.88;0.40;;;17.70;54.00;;;;;;10478307;28;20115;-59
2021/04/08 02:04:15;;;;;;;0.80;0.30;;;17.70;54.00;;;;;;10438676;28;20036;-59
2021/04/08 02:09:17;;;;;;;0.70;0.30;;;17.70;53.90;;;;;;10478440;28;20103;-58
2021/04/08 02:14:20;;;;;;;0.25;0.20;;;17.70;53.90;;;;;;10473383;28;20025;-58
2021/04/08 02:19:22;;;;;;;0.60;0.40;;;17.70;53.90;;;;;;10478814;28;20507;-59
2021/04/08 02:24:23;;;;;;;1.15;0.40;;;17.70;53.90;;;;;;10461733;28;20174;-59
2021/04/08 02:29:24;;;;;;;0.55;0.20;;;17.70;53.90;;;;;;10477790;28;20039;-59
2021/04/08 02:34:25;;;;;;;0.73;0.30;;;17.70;53.80;;;;;;10477735;28;20404;-58
2021/04/08 02:39:26;;;;;;;0.90;0.25;;;17.70;53.80;;;;;;10495407;28;20470;-59
2021/04/08 02:44:27;;;;;;;0.60;0.30;;;17.70;53.80;;;;;;10477332;28;20090;-58
2021/04/08 02:49:27;;;;;;;1.00;0.50;;;17.70;53.70;;;;;;10495163;28;20032;-58
2021/04/08 02:55:07;;;;;;;1.95;0.45;;;17.70;53.80;;;;;;10495267;28;20043;-58
2021/04/08 03:00:10;;;;;;;0.98;0.40;;;17.70;53.70;;;;;;10481094;28;20369;-58
2021/04/08 03:05:13;;;;;;;0.50;0.40;;;17.70;53.80;;;;;;10502526;28;20035;-58
2021/04/08 03:10:15;;;;;;;0.90;0.50;;;17.70;53.80;;;;;;10484187;28;20452;-59
2021/04/08 03:15:34;;;;;;;0.25;0.25;;;17.60;53.80;;;;;;10467362;28;20059;-59
2021/04/08 03:20:36;;;;;;;1.02;0.45;;;17.70;53.80;;;;;;10484314;28;20115;-58
2021/04/08 03:25:38;;;;;;;0.82;0.28;;;17.70;53.80;;;;;;10478459;28;20028;-59
2021/04/08 03:30:40;;;;;;;1.27;0.30;;;17.60;53.70;;;;;;10483592;28;20522;-59
2021/04/08 03:35:47;;;;;;;0.82;0.30;;;17.70;53.70;;;;;;10483303;28;20489;-59
2021/04/08 03:40:48;;;;;;;0.50;0.20;;;17.60;53.70;;;;;;10483747;28;20063;-59
2021/04/08 03:45:48;;;;;;;0.75;0.70;;;17.60;54.30;;;;;;10500933;28;20071;-59
2021/04/08 03:50:49;;;;;;;0.28;0.20;;;17.60;53.60;;;;;;10500467;28;20032;-59
2021/04/08 03:55:51;;;;;;;0.98;0.32;;;17.60;53.60;;;;;;10500747;28;20032;-59
2021/04/08 04:00:52;;;;;;;0.63;0.32;;;17.60;53.50;;;;;;10482168;28;20111;-58
2021/04/08 04:05:53;;;;;;;0.60;0.20;;;17.70;53.60;;;;;;10500044;28;20490;-58
2021/04/08 04:10:54;;;;;;;0.75;0.40;;;17.70;53.60;;;;;;10482049;28;20107;-59
2021/04/08 04:15:55;;;;;;;0.30;0.20;;;17.70;53.60;;;;;;10499536;28;20036;-58
2021/04/08 04:20:56;;;;;;;1.50;0.38;;;17.70;53.50;;;;;;10465452;28;20036;-59
2021/04/08 04:25:57;;;;;;;1.08;0.52;;;17.70;53.60;;;;;;10498973;28;20115;-58
2021/04/08 04:30:57;;;;;;;1.30;0.20;;;17.70;53.50;;;;;;10499412;28;20063;-59
2021/04/08 04:35:58;;;;;;;0.98;0.35;;;17.60;53.50;;;;;;10498534;28;20060;-59
2021/04/08 04:40:59;;;;;;;0.22;0.22;;;17.60;53.50;;;;;;10498496;28;20408;-59
2021/04/08 04:45:59;;;;;;;0.50;0.30;;;17.70;53.40;;;;;;10498096;28;20084;-58
2021/04/08 04:51:00;;;;;;;0.73;0.32;;;17.60;53.50;;;;;;10479785;28;20026;-59
2021/04/08 04:56:01;;;;;;;1.10;0.20;;;17.60;53.40;;;;;;10473400;28;20115;-59
2021/04/08 05:01:02;;;;;;;0.38;0.20;;;17.60;53.40;;;;;;10478508;28;20364;-59
2021/04/08 05:06:02;;;;;;;1.33;0.52;;;17.60;53.30;;;;;;10493317;28;20051;-59
2021/04/08 05:11:03;;;;;;;3.33;0.30;;;17.70;53.50;;;;;;10496604;28;20020;-56
2021/04/08 05:16:04;;;;;;;5.68;0.43;;;17.70;53.30;;;;;;10496866;28;20028;-58
2021/04/08 05:21:06;;;;;;;0.95;0.30;;;17.80;54.00;;;;;;10497449;28;20041;-59
2021/04/08 05:26:07;;;;;;;2.33;0.30;;;17.70;54.90;;;;;;10495635;28;20573;-58
2021/04/08 05:31:08;;;;;;;4.10;0.40;;;17.70;54.90;;;;;;10478930;28;20060;-58
2021/04/08 05:36:09;;;;;;;3.67;0.68;;;17.80;55.40;;;;;;10496591;28;20119;-57
2021/04/08 05:41:10;;;;;;;1.33;0.32;;;17.80;55.70;;;;;;10473584;28;20036;-58
2021/04/08 05:46:12;;;;;;;2.50;0.73;;;17.70;56.00;;;;;;10496734;28;20055;-59
2021/04/08 05:51:13;;;;;;;3.85;0.60;;;17.80;55.50;;;;;;10496027;28;20027;-58
2021/04/08 05:56:14;;;;;;;6.65;1.10;;;17.80;55.60;;;;;;10495896;28;20369;-60
2021/04/08 06:01:14;;;;;;;6.43;0.60;;;17.70;55.60;;;;;;10496011;28;20484;-60
2021/04/08 06:06:15;;;;;;;6.78;0.85;;;17.60;54.50;;;;;;10477545;28;20103;-60
2021/04/08 06:11:16;;;;;;;5.90;0.85;;;17.70;54.40;;;;;;10494734;28;20473;-60
2021/04/08 06:16:17;;;;;;;5.57;1.33;;;17.70;54.40;;;;;;10493164;28;20032;-59
2021/04/08 06:21:17;;;;;;;1.85;0.60;;;17.60;54.40;;;;;;10470782;28;20025;-59
2021/04/08 06:26:19;;;;;;;3.28;1.00;;;17.60;54.30;;;;;;10470436;28;20067;-58
2021/04/08 06:31:20;;;;;;;5.40;0.98;;;17.60;54.30;;;;;;10493408;28;20028;-59
2021/04/08 06:36:21;;;;;;;2.45;0.47;;;17.60;53.80;;;;;;10472862;28;20048;-59
2021/04/08 06:41:22;;;;;;;2.92;0.70;;;17.60;53.90;;;;;;10499906;28;20082;-58
2021/04/08 06:46:24;;;;;;;2.60;0.77;;;17.60;54.00;;;;;;10499251;28;20082;-58
2021/04/08 06:51:31;;;;;;;7.03;0.93;;;17.50;54.10;;;;;;10480247;28;20537;-59
2021/04/08 06:56:34;;;;;;;3.38;0.90;;;17.60;54.10;;;;;;10483663;28;20028;-60
2021/04/08 07:01:36;;;;;;;1.23;0.47;;;17.60;54.20;;;;;;10483622;28;20059;-59
2021/04/08 07:06:37;;;;;;;4.15;0.70;;;17.50;54.20;;;;;;10481052;28;20033;-58
2021/04/08 07:11:40;;;;;;;1.55;0.40;;;17.60;54.30;;;;;;10501547;28;20031;-58
2021/04/08 07:16:41;;;;;;;2.17;1.25;;;17.50;54.30;;;;;;10500573;28;20039;-58
2021/04/08 07:21:42;;;;;;;1.98;0.60;;;17.50;54.40;;;;;;10483298;28;20063;-58
2021/04/08 07:26:52;;;;;;;1.50;0.60;;;17.60;54.40;;;;;;10501035;28;20036;-59
2021/04/08 07:31:58;;;;;;;1.65;0.80;;;17.50;54.50;;;;;;10499519;28;20115;-59
2021/04/08 07:36:58;;;;;;;1.58;0.60;;;17.50;54.50;;;;;;10481914;28;20044;-59
2021/04/08 07:42:24;;;;;;;2.40;0.52;;;17.50;54.50;;;;;;10482336;28;20033;-58
2021/04/08 07:47:31;;;;;;;2.65;0.70;;;17.50;54.50;;;;;;10497099;28;20058;-58
2021/04/08 07:52:47;;;;;;;1.73;0.60;;;17.50;54.50;;;;;;10498824;28;20024;-58
2021/04/08 07:58:06;;;;;;;2.00;0.40;;;17.50;54.50;;;;;;10480255;28;20499;-59
2021/04/08 08:03:45;;;;;;;1.95;0.63;;;17.50;54.60;;;;;;10498424;28;20068;-59
2021/04/08 08:08:49;;;;;;;2.28;0.70;;;17.40;54.60;;;;;;10291262;28;20062;-58
2021/04/08 08:13:54;;;;;;;1.13;0.52;;;17.40;54.70;;;;;;10453935;28;20119;-58
2021/04/08 08:18:57;;;;;;;3.67;0.85;;;17.40;54.70;;;;;;10482332;28;20512;-59
2021/04/08 08:23:58;;;;;;;0.88;0.35;;;17.40;54.80;;;;;;10499340;28;20111;-58
2021/04/08 08:29:08;;;;;;;1.25;0.50;;;17.40;54.80;;;;;;10499318;28;20085;-59
2021/04/08 08:34:12;;;;;;;;;;;17.40;54.90;;;;;;10499348;28;20079;-58
2021/04/08 08:39:18;;;;;;;2.85;0.73;;;17.30;55.10;;;;;;10499017;28;19908;-59
2021/04/08 08:44:21;;;;;;;1.90;0.60;;;17.30;55.40;;;;;;10498430;28;20051;-58
2021/04/08 08:49:47;;;;;;;4.72;0.60;;;17.30;55.50;;;;;;10468236;28;20451;-59
2021/04/08 08:54:49;;;;;;;0.82;0.40;;;17.30;55.30;;;;;;10475962;28;20044;-59
2021/04/08 08:59:51;;;;;;;1.05;0.45;;;17.30;55.30;;;;;;10479686;28;20038;-58
2021/04/08 09:04:53;;;;;;;1.27;0.40;;;17.30;55.40;;;;;;10497911;28;20025;-59
2021/04/08 09:10:01;;;;;;;0.95;0.32;;;17.30;55.40;;;;;;10480099;28;20031;-58
2021/04/08 09:15:07;;;;;;;1.00;0.45;;;17.30;55.30;;;;;;10480726;28;20057;-58
2021/04/08 09:20:11;;;;;;;1.15;0.52;;;17.30;55.30;;;;;;10497589;28;20103;-58
2021/04/08 09:25:16;;;;;;;1.95;0.40;;;17.30;55.20;;;;;;10497480;28;20365;-59
2021/04/08 09:35:44;;;;;;;0.60;0.40;;;17.30;55.30;;;;;;10507350;28;20098;-58
2021/04/08 09:40:46;;;;;;;1.23;0.40;;;17.30;55.50;;;;;;10500065;28;20044;-59
2021/04/08 09:45:58;;;;;;;1.25;0.40;;;17.30;55.60;;;;;;10496820;28;20036;-59
2021/04/08 09:51:03;;;;;;;1.65;0.40;;;17.30;55.60;;;;;;10479299;28;20059;-58
2021/04/08 09:56:07;;;;;;;0.98;0.40;;;17.20;55.70;;;;;;10496576;28;20033;-58
2021/04/08 10:01:10;;;;;;;0.35;0.30;;;17.20;55.60;;;;;;10496567;28;20081;-59
2021/04/08 10:06:21;;;;;;;2.28;0.63;;;17.20;55.50;;;;;;10496159;28;20480;-59
2021/04/08 10:11:31;;;;;;;3.25;0.50;;;17.20;55.50;;;;;;10482804;28;20043;-59
2021/04/08 10:16:31;;;;;;;2.30;0.65;;;17.20;55.50;;;;;;10504434;28;20025;-58
2021/04/08 10:21:32;;;;;;;0.82;0.40;;;17.20;55.60;;;;;;10518355;28;20028;-58
2021/04/08 10:26:33;;;;;;;1.10;0.40;;;17.30;55.50;;;;;;10504297;28;20037;-58
2021/04/08 10:31:37;;;;;;;2.45;0.38;;;17.30;55.50;;;;;;10503545;28;20020;-58
2021/04/08 10:36:43;;;;;;;3.17;0.50;;;17.30;55.50;;;;;;10504054;28;20048;-57
2021/04/08 10:42:11;;;;;;;0.95;0.30;;;17.20;55.50;;;;;;10485934;28;20036;-59
2021/04/08 10:47:21;;;;;;;2.13;0.65;;;17.30;55.50;;;;;;10503505;28;20075;-59
2021/04/08 10:52:27;;;;;;;1.20;0.43;;;17.30;55.50;;;;;;10503126;28;20050;-59
2021/04/08 10:57:29;;;;;;;1.45;0.50;;;17.20;55.50;;;;;;10503020;28;20020;-59
2021/04/08 11:02:38;;;;;;;0.43;0.30;;;17.30;55.50;;;;;;10502625;28;20028;-59
2021/04/08 11:07:44;;;;;;;1.40;0.50;;;17.30;55.50;;;;;;10502640;28;20032;-58
2021/04/08 11:12:48;;;;;;;2.08;0.75;;;17.30;55.50;;;;;;10502663;28;20026;-59
2021/04/08 11:17:53;;;;;;;1.60;0.50;;;17.30;55.50;;;;;;10502132;28;20044;-59
2021/04/08 11:22:54;;;;;;;0.88;0.45;;;17.30;55.50;;;;;;10500788;28;20050;-58
2021/04/08 11:28:00;;;;;;;0.57;0.30;;;17.20;55.50;;;;;;10483192;28;20056;-58
2021/04/08 11:33:02;;;;;;;1.27;0.30;;;17.30;55.50;;;;;;10501243;28;20110;-58
2021/04/08 11:38:21;;;;;;;0.68;0.40;;;17.30;55.60;;;;;;10501087;28;20039;-59
2021/04/08 11:43:31;;;;;;;1.67;0.70;;;17.30;55.60;;;;;;10501238;28;20029;-59
2021/04/08 11:48:45;;;;;;;0.95;0.45;;;17.30;55.50;;;;;;10480525;28;20286;-58
2021/04/08 11:53:46;;;;;;;0.95;0.40;;;17.20;55.70;;;;;;10463667;28;20408;-59
2021/04/08 11:58:47;;;;;;;1.23;0.50;;;17.20;55.70;;;;;;10510156;28;20032;-59
2021/04/08 12:03:50;;;;;;;0.70;0.50;;;17.20;55.70;;;;;;10500366;28;20040;-58
2021/04/08 12:08:54;;;;;;;1.13;0.50;;;17.20;55.70;;;;;;10472473;28;20024;-58
2021/04/08 12:14:06;;;;;;;0.65;0.40;;;17.20;55.80;;;;;;10499335;28;20024;-58
2021/04/08 12:19:07;;;;;;;1.25;0.40;;;17.20;55.80;;;;;;10498629;28;20025;-59
2021/04/08 12:24:09;;;;;;;2.08;0.70;;;17.20;56.60;;;;;;10498496;28;20017;-59
2021/04/08 12:29:10;;;;;;;1.08;0.70;;;17.30;56.10;;;;;;10480349;28;20563;-60
2021/04/08 12:34:10;;;;;;;1.50;0.40;;;17.30;56.30;;;;;;10498812;28;20036;-60
2021/04/08 12:39:11;;;;;;;1.23;0.50;;;17.20;56.00;;;;;;10498781;28;20495;-59
2021/04/08 12:44:12;;;;;;;2.35;0.40;;;17.30;56.00;;;;;;10474318;28;20024;-59
2021/04/08 12:49:12;;;;;;;1.98;0.40;;;17.30;56.00;;;;;;10497750;28;20527;-60
2021/04/08 12:54:13;;;;;;;0.98;0.50;;;17.20;56.00;;;;;;10498182;28;20461;-60
2021/04/08 12:59:14;;;;;;;0.70;0.43;;;17.20;55.90;;;;;;10497803;28;20476;-59
2021/04/08 13:04:15;;;;;;;0.75;0.45;;;17.20;55.90;;;;;;10497220;28;20503;-59
2021/04/08 13:09:15;;;;;;;0.82;0.50;;;17.30;56.20;;;;;;10497650;28;20025;-59
2021/04/08 13:14:16;;;;;;;0.63;0.50;;;17.20;56.30;;;;;;10497536;28;20104;-60
2021/04/08 13:19:17;;;;;;;0.80;0.43;;;17.10;56.30;;;;;;10479622;28;20473;-60
2021/04/08 13:24:18;;;;;;;0.43;0.30;;;17.10;56.30;;;;;;10497180;28;20032;-59
2021/04/08 13:29:18;;;;;;;0.93;0.50;;;17.10;56.70;;;;;;10496880;28;20099;-60
2021/04/08 13:34:20;;;;;;;0.50;0.40;;;17.10;56.70;;;;;;10496864;28;20049;-59
2021/04/08 13:39:21;;;;;;;1.10;0.50;;;17.10;56.70;;;;;;10496420;28;20500;-58
2021/04/08 13:44:22;;;;;;;0.85;0.40;;;17.10;56.80;;;;;;10496111;28;20056;-59
2021/04/08 13:49:24;;;;;;;0.98;0.50;;;17.10;56.80;;;;;;10478693;28;20063;-59
2021/04/08 13:54:25;;;;;;;1.70;0.60;;;17.10;56.80;;;;;;10496769;28;20024;-60
2021/04/08 13:59:26;;;;;;;0.90;0.40;;;17.10;56.90;;;;;;10496533;28;20067;-59
2021/04/08 14:04:26;;;;;;;1.10;0.50;;;17.10;57.00;;;;;;10461994;28;20111;-59
2021/04/08 14:09:27;;;;;;;0.90;0.60;;;17.00;56.90;;;;;;10510623;28;20027;-59
2021/04/08 14:14:28;;;;;;;1.27;0.70;;;17.00;57.10;;;;;;10478836;28;20107;-59
2021/04/08 14:19:30;;;;;;;0.50;0.40;;;17.00;57.10;;;;;;10496428;28;20036;-59
2021/04/08 14:24:31;;;;;;;1.45;0.35;;;17.00;57.10;;;;;;10461695;28;20036;-59
2021/04/08 14:29:31;;;;;;;1.40;0.70;;;17.00;57.20;;;;;;10496121;28;20112;-59
2021/04/08 14:34:32;;;;;;;0.70;0.52;;;17.00;57.20;;;;;;10495235;28;20127;-59
2021/04/08 14:39:33;;;;;;;0.68;0.40;;;17.00;57.10;;;;;;10495007;28;20086;-59
2021/04/08 14:44:34;;;;;;;0.70;0.40;;;17.00;57.10;;;;;;10495879;28;20116;-59
2021/04/08 14:49:34;;;;;;;0.73;0.55;;;16.90;57.20;;;;;;10494838;28;20040;-59
2021/04/08 14:54:35;;;;;;;0.55;0.40;;;17.00;57.90;;;;;;10496646;28;20506;-59
2021/04/08 14:59:36;;;;;;;0.43;0.40;;;17.00;57.40;;;;;;10503153;28;20099;-59
2021/04/08 15:04:37;;;;;;;0.50;0.40;;;17.00;57.30;;;;;;10502298;28;20020;-59
2021/04/08 15:09:38;;;;;;;1.52;0.57;;;17.00;57.20;;;;;;10502738;28;20028;-59
2021/04/08 15:14:39;;;;;;;0.50;0.50;;;17.00;57.20;;;;;;10484644;28;20396;-58
2021/04/08 15:19:40;;;;;;;1.02;0.57;;;17.00;57.30;;;;;;10502266;28;20035;-59
2021/04/08 15:24:40;;;;;;;0.80;0.40;;;17.00;57.90;;;;;;10501852;28;20028;-58
2021/04/08 15:29:41;;;;;;;0.60;0.50;;;17.00;57.30;;;;;;10502331;28;20031;-60
2021/04/08 15:34:42;;;;;;;4.60;0.88;;;17.00;57.20;;;;;;10483820;28;20045;-60
2021/04/08 15:39:43;;;;;;;2.40;0.55;;;17.00;57.20;;;;;;10500976;28;20068;-58
2021/04/08 15:44:46;;;;;;;1.23;0.50;;;16.90;57.10;;;;;;10501084;28;20058;-60
2021/04/08 15:49:47;;;;;;;1.45;0.47;;;16.90;57.10;;;;;;10500257;28;20064;-60
2021/04/08 15:54:48;;;;;;;1.10;0.60;;;16.90;57.20;;;;;;10500695;28;20523;-60
2021/04/08 15:59:49;;;;;;;9.38;3.45;;;16.90;57.30;;;;;;10499733;28;20036;-61
2021/04/08 16:04:49;;;;;;;5.10;2.65;;;17.00;63.00;;;;;;10499945;28;20098;-55
2021/04/08 16:09:50;;;;;;;8.75;3.70;;;17.10;58.70;;;;;;10479338;28;20380;-58
2021/04/08 16:14:51;;;;;;;10.65;3.38;;;17.20;58.90;;;;;;10499720;28;20516;-59
2021/04/08 16:19:52;;;;;;;10.85;3.13;;;17.20;57.00;;;;;;10479830;28;20082;-64
2021/04/08 16:24:53;;;;;;;8.55;3.00;;;17.30;58.30;;;;;;10500005;28;20028;-63
2021/04/08 16:29:53;;;;;;;5.50;2.50;;;17.40;58.10;;;;;;10466751;28;20020;-60
2021/04/08 16:34:54;;;;;;;15.20;3.47;;;17.40;58.20;;;;;;10498097;28;20068;-61
2021/04/08 16:39:55;;;;;;;12.63;3.38;;;17.40;58.50;;;;;;10499774;28;20036;-60
2021/04/08 16:44:56;;;;;;;13.23;3.45;;;17.40;58.10;;;;;;10497139;28;20033;-58
2021/04/08 16:49:57;;;;;;;10.43;2.75;;;17.40;57.90;;;;;;10498066;28;20043;-59
2021/04/08 16:55:00;;;;;;;10.23;2.85;;;17.40;57.90;;;;;;10498490;28;20028;-60
2021/04/08 17:00:01;;;;;;;10.73;3.63;;;17.30;57.80;;;;;;10477024;28;20500;-59
2021/04/08 17:05:03;;;;;;;8.05;2.75;;;17.30;57.60;;;;;;10478928;28;20040;-59
2021/04/08 17:10:06;;;;;;;7.35;3.20;;;17.20;57.40;;;;;;10497921;28;20035;-60
2021/04/08 17:15:10;;;;;;;12.40;2.83;;;17.20;57.40;;;;;;10496934;28;20028;-58
2021/04/08 17:20:13;;;;;;;8.05;2.20;;;17.20;57.60;;;;;;10479596;28;20528;-58
2021/04/08 17:25:16;;;;;;;6.95;2.53;;;17.20;57.50;;;;;;10506217;28;20042;-58
2021/04/08 17:30:21;;;;;;;8.05;2.67;;;17.10;56.90;;;;;;10488225;28;20024;-58
2021/04/08 17:35:22;;;;;;;8.95;2.22;;;17.20;56.90;;;;;;10472383;28;20061;-58
2021/04/08 17:40:23;;;;;;;7.28;2.28;;;17.20;56.80;;;;;;10473861;28;20040;-58
2021/04/08 17:45:24;;;;;;;8.52;2.35;;;17.20;56.70;;;;;;10495532;28;20040;-58
2021/04/08 17:50:25;;;;;;;7.60;2.70;;;17.20;56.70;;;;;;10496101;28;20134;-58
2021/04/08 17:55:26;;;;;;;7.82;2.08;;;17.30;56.60;;;;;;10486242;28;20644;-58
2021/04/08 18:00:27;;;;;;;9.73;3.10;;;17.30;56.50;;;;;;10496052;28;20037;-58
2021/04/08 18:05:28;;;;;;;5.25;2.38;;;17.30;56.40;;;;;;10495671;28;20033;-58
2021/04/08 18:10:29;;;;;;;5.45;2.88;;;17.40;56.20;;;;;;10495773;28;20433;-59
2021/04/08 18:15:29;;;;;;;4.35;2.67;;;17.40;55.90;;;;;;10471229;28;20054;-58
2021/04/08 18:20:30;;;;;;;12.45;2.78;;;17.40;55.60;;;;;;10487064;28;20028;-59
2021/04/08 18:25:31;;;;;;;4.72;3.10;;;17.40;55.50;;;;;;10482234;28;20047;-59
2021/04/08 18:30:32;;;;;;;4.88;2.75;;;17.40;55.10;;;;;;10497819;28;20074;-59
2021/04/08 18:35:33;;;;;;;6.90;3.80;;;17.40;54.90;;;;;;10503703;28;20037;-59
2021/04/08 18:40:34;;;;;;;7.78;2.97;;;17.40;54.60;;;;;;10502033;28;20123;-58
2021/04/08 18:45:34;;;;;;;3.50;2.42;;;17.40;54.10;;;;;;10501863;28;20040;-58
2021/04/08 18:50:36;;;;;;;5.60;2.88;;;17.40;54.10;;;;;;10466821;28;20034;-58
2021/04/08 18:55:39;;;;;;;8.07;2.65;;;17.40;54.40;;;;;;10490565;28;20040;-58
2021/04/08 19:00:41;;;;;;;5.72;2.75;;;17.50;54.40;;;;;;10489606;28;20036;-58
2021/04/08 19:05:43;;;;;;;6.22;3.28;;;17.40;54.30;;;;;;10478857;28;20036;-58
2021/04/08 19:10:44;;;;;;;7.55;3.08;;;17.40;54.50;;;;;;10472024;28;20024;-58
2021/04/08 19:15:45;;;;;;;5.68;3.28;;;17.40;54.40;;;;;;10483617;28;20127;-59
2021/04/08 19:20:45;;;;;;;4.70;3.08;;;17.50;54.30;;;;;;10501254;28;20047;-58
2021/04/08 19:25:46;;;;;;;6.63;3.63;;;17.50;54.40;;;;;;10492949;28;20116;-58
2021/04/08 19:30:47;;;;;;;5.72;3.03;;;17.50;54.20;;;;;;10497946;28;20044;-58
2021/04/08 19:35:48;;;;;;;5.35;2.80;;;17.50;53.70;;;;;;10513220;28;20060;-58
2021/04/08 19:40:49;;;;;;;7.68;3.50;;;17.50;53.40;;;;;;10475379;28;20036;-59
2021/04/08 19:45:50;;;;;;;6.90;3.17;;;17.50;53.20;;;;;;10498080;28;20396;-59
2021/04/08 19:50:51;;;;;;;3.70;2.53;;;17.50;53.00;;;;;;10498340;28;20074;-58
2021/04/08 19:55:52;;;;;;;6.53;2.92;;;17.50;52.90;;;;;;10500106;28;20512;-59
2021/04/08 20:00:52;;;;;;;5.45;3.55;;;17.50;52.70;;;;;;10500283;28;20033;-59
2021/04/08 20:05:53;;;;;;;3.67;2.65;;;17.50;52.70;;;;;;10500407;28;20112;-59
2021/04/08 20:10:54;;;;;;;6.25;3.28;;;17.50;52.50;;;;;;10500457;28;20024;-59
2021/04/08 20:15:55;;;;;;;3.78;2.65;;;17.50;52.40;;;;;;10499481;28;20032;-59
2021/04/08 20:20:56;;;;;;;5.82;2.72;;;17.50;52.20;;;;;;10500081;28;20051;-59
2021/04/08 20:25:56;;;;;;;4.68;2.70;;;17.50;52.00;;;;;;10483935;28;20037;-59
2021/04/08 20:31:03;;;;;;;4.18;2.78;;;17.50;51.80;;;;;;10499825;28;20033;-59
2021/04/08 20:36:07;;;;;;;6.18;3.50;;;17.50;51.60;;;;;;10499306;28;20404;-59
2021/04/08 20:41:12;;;;;;;4.65;2.55;;;17.50;51.40;;;;;;10499061;28;20040;-59
2021/04/08 20:46:13;;;;;;;5.07;2.90;;;17.50;51.20;;;;;;10498966;28;20033;-59
2021/04/08 20:51:15;;;;;;;5.60;3.40;;;17.50;50.90;;;;;;10498464;28;20104;-59
2021/04/08 20:56:16;;;;;;;6.00;3.05;;;17.60;50.70;;;;;;10496620;28;20043;-59
2021/04/08 21:01:17;;;;;;;5.90;3.25;;;17.60;50.60;;;;;;10479447;28;20031;-59
2021/04/08 21:06:18;;;;;;;9.63;2.65;;;17.60;50.40;;;;;;10497376;28;20044;-59
2021/04/08 21:11:19;;;;;;;4.35;2.83;;;17.60;50.20;;;;;;10479464;28;20035;-58
2021/04/08 21:16:19;;;;;;;5.72;2.60;;;17.60;50.10;;;;;;10497748;28;20033;-58
2021/04/08 21:21:21;;;;;;;3.53;2.50;;;17.60;50.10;;;;;;10496854;28;20510;-59
2021/04/08 21:26:21;;;;;;;4.50;2.30;;;17.60;50.10;;;;;;10496926;28;20028;-59
2021/04/08 21:31:25;;;;;;;4.28;2.58;;;17.70;50.00;;;;;;10497378;28;20029;-59
2021/04/08 21:36:26;;;;;;;4.18;2.45;;;17.70;50.00;;;;;;10479343;28;20056;-59
2021/04/08 21:41:27;;;;;;;5.88;2.50;;;17.70;49.90;;;;;;10496754;28;20029;-59
2021/04/08 21:46:27;;;;;;;3.65;2.45;;;17.70;49.80;;;;;;10496480;28;20439;-59
2021/04/08 21:51:32;;;;;;;4.07;2.08;;;17.70;49.80;;;;;;10496609;28;20500;-59
2021/04/08 21:56:32;;;;;;;3.85;2.40;;;17.70;49.80;;;;;;10496869;28;20432;-59
2021/04/08 22:01:33;;;;;;;3.63;2.05;;;17.70;49.70;;;;;;10478416;28;20052;-59
2021/04/08 22:06:35;;;;;;;4.97;2.08;;;17.70;49.70;;;;;;10483119;28;20029;-58
2021/04/08 22:11:35;;;;;;;3.17;1.80;;;17.70;49.60;;;;;;10500667;28;20029;-59
2021/04/08 22:16:36;;;;;;;3.83;1.90;;;17.70;49.50;;;;;;10486509;28;20033;-58
2021/04/08 22:21:37;;;;;;;5.05;2.33;;;17.80;49.50;;;;;;10504253;28;20126;-58
2021/04/08 22:26:39;;;;;;;3.83;2.10;;;17.70;49.40;;;;;;10503683;28;20024;-59
2021/04/08 22:31:40;;;;;;;5.65;2.67;;;17.80;49.30;;;;;;10485593;28;20032;-59
2021/04/08 22:36:48;;;;;;;2.75;1.90;;;17.80;49.20;;;;;;10485658;28;20040;-58
2021/04/08 22:41:48;;;;;;;3.75;2.53;;;17.80;49.10;;;;;;10502445;28;20169;-58
2021/04/08 22:46:50;;;;;;;6.50;2.35;;;17.80;49.70;;;;;;10510725;28;20032;-58
2021/04/08 22:51:50;;;;;;;3.00;1.73;;;17.70;49.00;;;;;;10488594;28;20533;-59
2021/04/08 22:56:55;;;;;;;4.80;2.63;;;17.80;49.00;;;;;;10503163;28;20036;-59
2021/04/08 23:01:56;;;;;;;3.95;2.50;;;17.80;48.90;;;;;;10502698;28;20032;-58
2021/04/08 23:06:56;;;;;;;2.83;2.30;;;17.80;48.90;;;;;;10502705;28;20116;-59
2021/04/08 23:11:59;;;;;;;3.55;2.28;;;17.80;48.90;;;;;;10485196;28;20032;-59
2021/04/08 23:17:00;;;;;;;5.55;3.28;;;17.80;48.80;;;;;;10501805;28;20143;-58
2021/04/08 23:22:00;;;;;;;4.70;2.35;;;17.80;48.70;;;;;;10501948;28;20115;-59
2021/04/08 23:27:01;;;;;;;4.32;2.88;;;17.80;48.70;;;;;;10515763;28;20025;-59
2021/04/08 23:32:02;;;;;;;4.60;2.65;;;17.80;48.60;;;;;;10495213;28;20033;-58
2021/04/08 23:37:03;;;;;;;4.97;2.88;;;17.80;48.50;;;;;;10501651;28;20059;-59
2021/04/08 23:42:04;;;;;;;4.18;2.45;;;17.80;48.40;;;;;;10501550;28;20037;-59
2021/04/08 23:47:04;;;;;;;3.80;2.22;;;17.80;48.30;;;;;;10477010;28;20032;-59
2021/04/08 23:52:09;;;;;;;3.78;2.42;;;17.80;48.30;;;;;;10501097;28;20025;-59
2021/04/08 23:57:10;;;;;;;4.28;2.58;;;17.80;48.30;;;;;;10501240;28;20453;-59
